Time;durP1;ratioP1;P1;durP2;ratioP2;P2;SDS_P1;SDS_P2;PMS_P1;PMS_P2;Temp;Humidity;BMP_temperature;BMP_pressure;BME280_temperature;BME280_humidity;BME280_pressure;Samples;Min_cycle;Max_cycle;Signal;HPM_P1;HPM_P2
2021/09/04 15:15:13;;;;;;;;;29.50;29.00;;;;;21.31;66.52;101061.78;5471101;24;8906;-82
2021/09/04 15:18:09;;;;;;;;;23.75;23.75;;;;;21.14;65.05;101066.09;4859945;29;8996;-87
2021/09/04 15:21:06;;;;;;;;;18.75;17.25;;;;;21.10;64.84;101057.66;4865659;29;8858;-86
2021/09/04 15:24:02;;;;;;;;;36.75;33.75;;;;;21.03;65.14;101062.44;4873160;29;8854;-83
2021/09/04 15:26:59;;;;;;;;;26.00;26.00;;;;;21.08;63.77;101073.31;4846564;29;8904;-84
2021/09/04 15:29:55;;;;;;;;;24.00;24.00;;;;;21.16;63.41;101077.75;4862298;29;8905;-85
2021/09/04 15:32:22;;;;;;;;;34.50;32.50;;;;;21.16;64.67;101077.75;4880645;29;8887;-86
2021/09/04 15:35:18;;;;;;;;;24.50;23.50;;;;;21.11;63.09;101072.53;4867707;29;8871;-87
2021/09/04 15:38:15;;;;;;;;;23.00;23.00;;;;;21.16;62.62;101072.13;4864083;29;8899;-85
2021/09/04 15:41:10;;;;;;;;;20.25;20.25;;;;;21.14;63.04;101073.75;4862988;29;8902;-88
2021/09/04 15:43:52;;;;;;;;;22.00;21.75;;;;;21.03;63.17;101079.31;4861976;29;8886;-89
2021/09/04 15:46:50;;;;;;;;;22.75;22.00;;;;;20.95;63.12;101084.09;4862717;29;8870;-88
2021/09/04 15:49:46;;;;;;;;;26.75;26.75;;;;;21.02;63.69;101075.69;4863783;29;8905;-85
2021/09/04 15:52:42;;;;;;;;;21.50;21.50;;;;;20.96;61.74;101079.28;4862697;29;8997;-89
2021/09/04 15:55:37;;;;;;;;;22.25;21.50;;;;;21.01;62.21;101090.13;4878100;29;8876;-87
2021/09/04 15:58:06;;;;;;;;;22.50;22.50;;;;;20.98;61.52;101090.94;4881765;29;8892;-89
2021/09/04 16:01:01;;;;;;;;;28.00;28.00;;;;;20.91;60.28;101091.69;4869704;29;9657;-87
2021/09/04 16:03:29;;;;;;;;;42.25;36.25;;;;;20.75;56.32;101096.78;4881115;29;8891;-86
2021/09/04 16:06:25;;;;;;;;;39.50;34.75;;;;;20.81;56.35;101101.66;4881156;29;8957;-88
2021/09/04 16:09:22;;;;;;;;;32.25;28.25;;;;;20.80;54.74;101105.69;4868854;29;8998;-87
2021/09/04 16:12:18;;;;;;;;;14.00;14.00;;;;;20.80;55.14;101105.69;4883730;29;8902;-87
2021/09/04 16:15:14;;;;;;;;;34.75;28.00;;;;;20.77;52.92;101109.25;4877530;29;8913;-86
2021/09/04 16:18:09;;;;;;;;;30.50;29.50;;;;;20.80;52.13;101108.50;4867822;29;8970;-89
2021/09/04 16:21:05;;;;;;;;;30.50;29.50;;;;;20.79;51.25;101106.88;4861464;29;8876;-86
2021/09/04 16:24:02;;;;;;;;;31.00;27.50;;;;;20.82;51.22;101119.34;4850539;29;8876;-84
2021/09/04 16:26:57;;;;;;;;;26.50;25.00;;;;;20.83;52.71;101127.38;4861905;29;8990;-83
2021/09/04 16:29:54;;;;;;;;;28.75;28.50;;;;;20.75;52.68;101130.53;4850358;29;8881;-83
2021/09/04 16:32:50;;;;;;;;;33.00;31.50;;;;;20.76;52.92;101126.50;4861106;29;8912;-83
2021/09/04 16:35:45;;;;;;;;;30.75;30.25;;;;;20.71;53.19;101135.31;4860413;29;8890;-87
2021/09/04 16:38:41;;;;;;;;;36.25;30.25;;;;;20.66;52.89;101142.09;4861489;29;8870;-87
2021/09/04 16:41:37;;;;;;;;;33.00;29.75;;;;;20.38;52.99;101145.44;4846857;29;8894;-84
2021/09/04 16:44:32;;;;;;;;;21.00;19.25;;;;;20.49;53.18;101151.19;4863547;29;8868;-85
2021/09/04 16:47:28;;;;;;;;;8.75;8.75;;;;;20.46;53.11;101157.56;4863812;29;8897;-84
2021/09/04 16:50:24;;;;;;;;;13.00;13.00;;;;;20.57;53.71;101157.69;4830814;29;8927;-87
2021/09/04 16:53:19;;;;;;;;;6.00;6.00;;;;;20.45;51.02;101172.81;4847968;29;8993;-85
2021/09/04 16:56:15;;;;;;;;;12.00;11.25;;;;;20.43;53.01;101172.38;4849566;29;8918;-87
2021/09/04 16:59:11;;;;;;;;;8.25;8.25;;;;;20.37;50.68;101179.53;4851183;29;8937;-90
2021/09/04 17:02:07;;;;;;;;;13.25;12.50;;;;;20.35;53.19;101190.34;4862318;29;9086;-88
2021/09/04 17:05:06;;;;;;;;;14.75;14.75;;;;;20.35;53.37;101190.34;4873107;29;8998;-89
2021/09/04 17:08:03;;;;;;;;;17.75;17.25;;;;;20.32;54.84;101196.72;4849670;29;8858;-89
2021/09/04 17:10:59;;;;;;;;;17.75;17.75;;;;;20.37;55.66;101187.94;4858469;29;9662;-87
2021/09/04 17:13:55;;;;;;;;;29.75;28.25;;;;;20.32;54.74;101196.72;4833707;29;8882;-87
2021/09/04 17:16:51;;;;;;;;;35.50;32.25;;;;;20.33;55.49;101201.97;4842877;29;8981;-90
2021/09/04 17:19:46;;;;;;;;;36.25;33.00;;;;;20.29;55.73;101203.91;4860810;29;8922;-89
2021/09/04 17:22:42;;;;;;;;;48.75;38.25;;;;;20.40;56.63;101204.06;4862115;29;8925;-89
2021/09/04 17:25:38;;;;;;;;;0.00;0.00;;;;;20.36;54.22;101200.38;4864921;29;8863;-88
2021/09/04 17:28:34;;;;;;;;;41.67;36.33;;;;;20.32;53.49;101202.34;4842265;29;9009;-90
2021/09/04 17:31:31;;;;;;;;;51.33;43.67;;;;;20.31;53.17;101203.53;4854777;29;8969;-90
2021/09/04 17:34:27;;;;;;;;;51.33;41.00;;;;;20.33;53.23;101210.41;4873717;29;9241;-88
2021/09/04 17:37:22;;;;;;;;;43.50;34.75;;;;;20.45;56.68;101206.53;4866392;29;9118;-84
2021/09/04 17:40:18;;;;;;;;;43.00;36.25;;;;;20.72;58.58;101212.81;4854674;29;8942;-82
2021/09/04 17:43:14;;;;;;;;;36.00;32.25;;;;;20.75;56.17;101209.22;4870520;29;9613;-83
2021/09/04 17:46:09;;;;;;;;;33.25;30.75;;;;;20.63;52.39;101206.72;4864846;29;8908;-84
2021/09/04 17:49:05;;;;;;;;;31.75;29.25;;;;;20.72;57.88;101218.44;4857949;29;8854;-82
2021/09/04 17:52:00;;;;;;;;;26.00;24.75;;;;;20.68;53.78;101215.59;4869219;29;8877;-82
2021/09/04 17:54:56;;;;;;;;;22.75;22.50;;;;;20.55;51.72;101222.69;4870427;29;8863;-83
2021/09/04 17:57:52;;;;;;;;;21.75;20.50;;;;;20.33;48.30;101216.03;4868507;29;8878;-83
2021/09/04 18:00:48;;;;;;;;;17.50;16.50;;;;;20.53;52.26;101227.88;4870578;29;8987;-83
2021/09/04 18:03:45;;;;;;;;;19.25;17.50;;;;;20.46;51.88;101223.00;4868274;29;8879;-83
2021/09/04 18:06:40;;;;;;;;;16.50;13.50;;;;;20.51;53.32;101230.28;4859589;29;9652;-82
2021/09/04 18:09:36;;;;;;;;;22.50;21.25;;;;;20.59;51.23;101223.53;4859317;29;8893;-83
2021/09/04 18:12:34;;;;;;;;;23.75;23.00;;;;;20.56;55.34;101234.75;4848238;29;8949;-83
2021/09/04 18:15:29;;;;;;;;;27.50;26.75;;;;;20.70;53.36;101227.25;4847548;29;8913;-85
2021/09/04 18:18:25;;;;;;;;;31.75;30.25;;;;;20.59;52.86;101234.78;4850539;29;8856;-85
2021/09/04 18:21:21;;;;;;;;;33.75;32.00;;;;;20.63;52.46;101230.00;4878117;29;8958;-84
2021/09/04 18:24:16;;;;;;;;;45.50;35.75;;;;;20.59;53.19;101231.97;4857437;29;9685;-85
2021/09/04 18:27:12;;;;;;;;;50.00;38.50;;;;;20.47;51.48;101235.03;4852527;29;8884;-84
2021/09/04 18:30:10;;;;;;;;;45.75;37.50;;;;;20.37;50.27;101244.13;4841732;29;8895;-85
2021/09/04 18:33:05;;;;;;;;;58.33;43.33;;;;;20.28;49.03;101248.06;4845090;29;8918;-85
2021/09/04 18:36:01;;;;;;;;;64.00;43.00;;;;;20.39;52.77;101250.97;4840403;29;9208;-84
2021/09/04 18:38:56;;;;;;;;;50.33;39.00;;;;;20.39;53.40;101239.72;4857379;29;9183;-84
2021/09/04 18:41:52;;;;;;;;;54.33;40.67;;;;;20.24;50.70;101247.22;4840678;29;9318;-84
2021/09/04 18:44:47;;;;;;;;;44.75;34.75;;;;;20.24;50.90;101258.47;4841660;29;9060;-84
2021/09/04 18:47:43;;;;;;;;;38.25;32.50;;;;;20.27;52.38;101254.06;4841088;29;8873;-84
2021/09/04 18:50:39;;;;;;;;;32.50;30.00;;;;;20.35;54.04;101246.53;4831576;29;8885;-91
2021/09/04 18:53:35;;;;;;;;;18.00;17.50;;;;;20.12;49.83;101258.69;4829803;29;8881;-90
2021/09/04 18:56:32;;;;;;;;;11.50;11.50;;;;;19.92;49.46;101260.03;4845746;29;9654;-90
2021/09/04 18:59:27;;;;;;;;;16.25;15.50;;;;;19.77;49.38;101272.25;4832144;29;9731;-90
2021/09/04 19:02:23;;;;;;;;;7.75;7.75;;;;;19.54;49.00;101258.25;4885545;29;8975;-91
2021/09/04 19:05:18;;;;;;;;;8.25;8.25;;;;;19.32;49.27;101254.31;4870994;29;8860;-90
2021/09/04 19:08:14;;;;;;;;;7.75;7.75;;;;;19.27;49.34;101258.28;4882449;29;8868;-89
2021/09/04 19:11:10;;;;;;;;;5.75;5.75;;;;;19.16;49.67;101266.50;4870075;29;8890;-91
2021/09/04 19:14:06;;;;;;;;;7.50;7.50;;;;;19.10;50.23;101265.22;4871986;29;8939;-90
2021/09/04 19:17:03;;;;;;;;;6.25;6.25;;;;;18.82;49.85;101262.72;4833605;29;8931;-90
2021/09/04 19:19:58;;;;;;;;;5.75;5.75;;;;;18.82;49.60;101265.53;4833627;29;9010;-90
2021/09/04 19:22:54;;;;;;;;;6.75;6.75;;;;;18.57;49.00;101287.47;4834261;29;8979;-90
2021/09/04 19:25:49;;;;;;;;;8.25;8.25;;;;;18.72;49.86;101284.97;4878498;29;8883;-87
2021/09/04 19:28:45;;;;;;;;;5.25;5.25;;;;;18.70;49.95;101278.91;4882878;29;8884;-90
2021/09/04 19:31:41;;;;;;;;;7.00;7.00;;;;;18.48;49.80;101289.69;4867558;29;8892;-89
2021/09/04 19:34:37;;;;;;;;;5.75;5.75;;;;;18.61;50.59;101293.13;4832413;29;8881;-91
2021/09/04 19:37:32;;;;;;;;;6.00;6.00;;;;;18.56;50.50;101305.44;4856246;29;8883;-91
2021/09/04 19:40:28;;;;;;;;;4.00;4.00;;;;;18.55;50.12;101311.41;4856707;29;8880;-90
2021/09/04 19:43:25;;;;;;;;;5.50;5.50;;;;;18.43;50.58;101303.16;4858100;29;8954;-87
2021/09/04 19:46:21;;;;;;;;;6.50;6.50;;;;;18.37;50.35;101305.44;4868883;29;8902;-90
2021/09/04 19:49:16;;;;;;;;;5.00;5.00;;;;;18.34;50.69;101309.81;4868930;29;8962;-88
2021/09/04 19:52:12;;;;;;;;;7.25;7.25;;;;;18.31;50.77;101307.72;4871002;29;9010;-90
2021/09/04 19:55:08;;;;;;;;;5.25;5.00;;;;;18.10;51.28;101317.69;4870954;29;8907;-88
2021/09/04 19:58:04;;;;;;;;;5.50;5.50;;;;;18.17;51.38;101315.00;4869068;29;8872;-89
2021/09/04 20:00:59;;;;;;;;;7.25;6.50;;;;;18.14;51.48;101322.16;4873718;29;8921;-91
2021/09/04 20:03:55;;;;;;;;;6.00;6.00;;;;;18.03;51.90;101327.53;4869238;29;8884;-88
2021/09/04 20:06:51;;;;;;;;;5.25;5.25;;;;;18.04;51.76;101331.97;4833394;29;8880;-89
2021/09/04 20:09:46;;;;;;;;;10.25;9.25;;;;;18.03;51.46;101330.34;4856218;29;8900;-91
2021/09/04 20:12:42;;;;;;;;;7.25;7.25;;;;;17.95;52.21;101328.56;4858341;29;8894;-87
2021/09/04 20:15:38;;;;;;;;;6.75;6.75;;;;;17.91;52.44;101332.44;4880862;29;8898;-87
2021/09/04 20:18:33;;;;;;;;;10.25;8.50;;;;;17.83;51.84;101336.25;4862262;29;8973;-88
2021/09/04 20:21:29;;;;;;;;;11.25;11.25;;;;;17.77;52.17;101327.34;4862910;29;8863;-91
2021/09/04 20:24:25;;;;;;;;;7.00;7.00;;;;;17.74;52.20;101331.69;4854892;29;8911;-89
2021/09/04 20:27:20;;;;;;;;;8.00;8.00;;;;;17.71;52.17;101334.38;4855172;29;8865;-87
2021/09/04 20:30:16;;;;;;;;;6.00;6.00;;;;;17.69;52.32;101333.91;4854268;29;8905;-89
2021/09/04 20:33:11;;;;;;;;;0.25;0.25;;;;;17.55;51.97;101325.19;4842250;29;9602;-89
2021/09/04 20:39:18;;;;;;;;;9.00;9.00;;;;;17.45;52.69;101338.53;4888039;29;8894;-90
2021/09/04 20:42:14;;;;;;;;;7.50;7.50;;;;;17.26;53.36;101343.25;4879786;29;9000;-89
2021/09/04 20:45:10;;;;;;;;;7.75;7.75;;;;;17.33;52.47;101340.59;4866644;29;8896;-89
2021/09/04 20:48:07;;;;;;;;;4.00;4.00;;;;;17.28;52.58;101349.28;4872961;29;8989;-89
2021/09/04 20:51:02;;;;;;;;;9.75;9.75;;;;;17.21;52.65;101347.13;4863216;29;8877;-87
2021/09/04 20:53:58;;;;;;;;;7.50;7.50;;;;;17.14;53.31;101347.75;4852832;29;8874;-88
2021/09/04 20:56:53;;;;;;;;;8.75;8.25;;;;;17.13;52.65;101354.50;4865325;29;8881;-89
2021/09/04 20:59:49;;;;;;;;;10.00;10.00;;;;;17.10;53.09;101360.00;4852536;29;8874;-89
2021/09/04 21:02:44;;;;;;;;;11.00;10.00;;;;;16.90;53.02;101373.84;4850239;29;8874;-88
2021/09/04 21:05:40;;;;;;;;;10.25;10.25;;;;;16.97;53.06;101372.44;4850424;29;9001;-89
2021/09/04 21:08:35;;;;;;;;;9.75;9.75;;;;;17.04;53.24;101365.06;4843716;29;9668;-92
2021/09/04 21:11:31;;;;;;;;;13.33;13.33;;;;;16.81;53.63;101373.22;4842342;29;8930;-88
2021/09/04 21:14:27;;;;;;;;;12.50;12.50;;;;;16.86;53.62;101369.31;4859540;29;8987;-88
2021/09/04 21:17:23;;;;;;;;;13.75;10.25;;;;;16.94;53.54;101369.19;4842112;29;8966;-87
2021/09/04 21:20:19;;;;;;;;;10.25;10.25;;;;;16.85;54.02;101374.09;4842485;29;8860;-88
2021/09/04 21:23:14;;;;;;;;;7.00;7.00;;;;;16.86;54.01;101372.13;4830602;29;8959;-88
2021/09/04 21:26:10;;;;;;;;;15.67;15.67;;;;;16.70;54.70;101372.09;4835068;29;8977;-90
2021/09/04 21:29:06;;;;;;;;;15.67;15.67;;;;;16.75;54.01;101371.03;4821487;29;9144;-88
2021/09/04 21:32:02;;;;;;;;;16.33;16.33;;;;;16.68;55.01;101369.63;4824628;29;8982;-87
2021/09/04 21:34:57;;;;;;;;;20.67;19.33;;;;;16.68;54.55;101372.41;4834819;29;9193;-92
2021/09/04 21:37:53;;;;;;;;;20.33;20.33;;;;;16.58;54.74;101372.94;4823402;29;9094;-89
2021/09/04 21:40:49;;;;;;;;;20.00;20.00;;;;;16.55;55.06;101382.00;4835451;29;9473;-87
2021/09/04 21:43:45;;;;;;;;;19.67;19.67;;;;;16.51;54.48;101383.88;4840434;29;9220;-87
2021/09/04 21:46:40;;;;;;;;;19.33;18.33;;;;;16.51;54.34;101386.69;4852987;29;9360;-89
2021/09/04 21:49:36;;;;;;;;;17.67;17.67;;;;;16.49;54.47;101385.41;4841238;29;9241;-89
2021/09/04 21:52:31;;;;;;;;;19.00;19.00;;;;;16.42;54.54;101388.00;4853183;29;9285;-88
2021/09/04 21:55:27;;;;;;;;;21.00;19.33;;;;;16.38;54.92;101387.88;4852832;29;10188;-89
2021/09/04 21:58:22;;;;;;;;;20.33;20.33;;;;;16.33;55.13;101376.94;4852806;29;9515;-87
2021/09/04 22:01:18;;;;;;;;;21.33;21.33;;;;;16.25;56.03;101378.72;4838592;29;10297;-87
2021/09/04 22:04:14;;;;;;;;;20.00;19.00;;;;;16.29;56.67;101385.22;4834038;29;9376;-88
2021/09/04 22:07:11;;;;;;;;;20.33;20.00;;;;;16.21;57.33;101385.38;4834856;29;9372;-88
2021/09/04 22:10:08;;;;;;;;;17.67;17.67;;;;;16.14;56.84;101383.16;4822905;29;9306;-88
2021/09/04 22:13:03;;;;;;;;;21.00;21.00;;;;;16.01;57.45;101385.16;4815875;29;10134;-89
2021/09/04 22:15:59;;;;;;;;;20.33;18.67;;;;;15.89;57.49;101387.16;4827593;29;9297;-87
2021/09/04 22:18:54;;;;;;;;;15.67;15.67;;;;;15.70;58.32;101385.78;4843278;29;9463;-86
2021/09/04 22:21:50;;;;;;;;;19.00;17.00;;;;;15.77;58.39;101390.75;4845498;29;9370;-87
2021/09/04 22:24:46;;;;;;;;;15.33;15.00;;;;;15.64;58.81;101392.75;4845242;29;9516;-87
2021/09/04 22:27:42;;;;;;;;;15.00;15.00;;;;;15.65;59.15;101397.16;4845593;29;9605;-87
2021/09/04 22:30:37;;;;;;;;;18.33;17.33;;;;;15.64;59.06;101397.50;4845716;29;9601;-88
2021/09/04 22:33:33;;;;;;;;;13.67;13.67;;;;;15.22;60.50;101392.91;4836749;29;9531;-88
2021/09/04 22:36:34;;;;;;;;;11.00;11.00;;;;;14.95;61.40;101394.34;4849348;29;9392;-88
2021/09/04 22:39:30;;;;;;;;;13.00;12.00;;;;;15.12;60.80;101389.75;4826265;29;9299;-87
2021/09/04 22:42:26;;;;;;;;;12.67;12.67;;;;;15.08;60.96;101394.38;4826172;29;9273;-87
2021/09/04 22:45:22;;;;;;;;;12.00;12.00;;;;;14.86;62.15;101396.38;4849241;29;9468;-87
2021/09/04 22:48:19;;;;;;;;;10.00;10.00;;;;;14.90;61.98;101400.13;4852943;29;9527;-87
2021/09/04 22:51:14;;;;;;;;;12.50;12.00;;;;;14.87;62.39;101397.22;4833713;29;9509;-86
2021/09/04 22:54:10;;;;;;;;;11.00;11.00;;;;;14.89;63.31;101398.50;4827069;29;9722;-86
2021/09/04 22:57:06;;;;;;;;;12.75;12.75;;;;;15.01;63.15;101394.94;4828880;29;9646;-88
2021/09/04 23:00:03;;;;;;;;;11.75;11.75;;;;;14.79;63.76;101398.09;4855652;29;9739;-86
2021/09/04 23:02:59;;;;;;;;;13.00;12.00;;;;;14.72;63.78;101393.09;4845534;29;9601;-86
2021/09/04 23:05:54;;;;;;;;;11.50;11.50;;;;;14.67;64.06;101398.88;4845539;29;9617;-87
2021/09/04 23:08:50;;;;;;;;;10.25;10.25;;;;;14.69;63.64;101391.00;4833681;29;9826;-87
2021/09/04 23:11:46;;;;;;;;;10.50;10.50;;;;;14.72;63.43;101393.94;4846810;29;9746;-88
2021/09/04 23:14:41;;;;;;;;;11.75;11.75;;;;;14.84;63.43;101395.13;4828425;29;9703;-87
2021/09/04 23:17:37;;;;;;;;;12.00;12.00;;;;;14.88;63.33;101391.31;4845858;29;9990;-87
2021/09/04 23:20:33;;;;;;;;;8.75;8.25;;;;;14.82;63.44;101400.22;4862119;29;9539;-87
2021/09/04 23:23:28;;;;;;;;;9.75;9.75;;;;;14.72;63.68;101402.28;4854518;29;9677;-86
2021/09/04 23:26:25;;;;;;;;;13.50;13.50;;;;;14.51;64.24;101398.69;4845686;29;9687;-89
2021/09/04 23:29:21;;;;;;;;;11.00;11.00;;;;;14.58;64.55;101400.94;4843762;29;9770;-87
2021/09/04 23:32:17;;;;;;;;;10.25;10.00;;;;;14.39;64.89;101401.38;4832732;29;9716;-87
2021/09/04 23:35:13;;;;;;;;;12.50;11.75;;;;;14.26;65.85;101403.28;4845936;29;9831;-87
2021/09/04 23:38:09;;;;;;;;;11.25;11.25;;;;;14.14;66.15;101412.34;4847346;29;9815;-88
2021/09/04 23:41:04;;;;;;;;;9.75;9.75;;;;;14.13;66.34;101421.84;4843795;29;9531;-88
2021/09/04 23:44:00;;;;;;;;;11.00;11.00;;;;;13.93;67.11;101411.50;4843938;29;9751;-89
2021/09/04 23:46:55;;;;;;;;;10.25;10.25;;;;;14.08;66.19;101415.66;4843540;29;9851;-88
2021/09/04 23:49:51;;;;;;;;;10.00;10.00;;;;;14.24;66.25;101419.47;4843478;29;9865;-88
2021/09/04 23:52:46;;;;;;;;;11.00;11.00;;;;;14.08;66.94;101424.81;4844006;29;9785;-89
2021/09/04 23:55:42;;;;;;;;;12.50;12.50;;;;;14.20;66.58;101418.53;4843251;29;9866;-88
2021/09/04 23:58:38;;;;;;;;;11.25;11.00;;;;;14.07;66.90;101423.19;4843947;29;10066;-88
